sensor_id;sensor_type;location;lat;lon;timestamp;pressure;altitude;pressure_sealevel;temperature;humidity
37068;BME280;22982;42.848;25.468;2022-11-30T00:02:03;96686.44;;;1.49;100.00
37068;BME280;22982;42.848;25.468;2022-11-30T00:07:05;96691.44;;;1.58;100.00
37068;BME280;22982;42.848;25.468;2022-11-30T00:12:07;96701.72;;;1.63;100.00
37068;BME280;22982;42.848;25.468;2022-11-30T00:17:10;96682.38;;;1.36;100.00
37068;BME280;22982;42.848;25.468;2022-11-30T00:22:12;96690.59;;;1.58;100.00
37068;BME280;22982;42.848;25.468;2022-11-30T00:27:14;96682.75;;;1.62;100.00
37068;BME280;22982;42.848;25.468;2022-11-30T00:32:17;96685.22;;;1.70;100.00
37068;BME280;22982;42.848;25.468;2022-11-30T00:37:19;96691.25;;;1.67;100.00
37068;BME280;22982;42.848;25.468;2022-11-30T00:42:22;96676.56;;;1.69;100.00
37068;BME280;22982;42.848;25.468;2022-11-30T00:47:24;96684.41;;;1.66;100.00
37068;BME280;22982;42.848;25.468;2022-11-30T00:52:28;96658.69;;;1.59;100.00
37068;BME280;22982;42.848;25.468;2022-11-30T00:57:31;96680.88;;;1.70;100.00
37068;BME280;22982;42.848;25.468;2022-11-30T01:02:33;96677.44;;;1.70;100.00
37068;BME280;22982;42.848;25.468;2022-11-30T01:07:36;96666.41;;;1.60;100.00
37068;BME280;22982;42.848;25.468;2022-11-30T01:12:38;96653.72;;;1.48;100.00
37068;BME280;22982;42.848;25.468;2022-11-30T01:17:41;96640.13;;;1.37;100.00
37068;BME280;22982;42.848;25.468;2022-11-30T01:22:43;96654.47;;;1.53;100.00
37068;BME280;22982;42.848;25.468;2022-11-30T01:27:48;96646.66;;;1.58;100.00
37068;BME280;22982;42.848;25.468;2022-11-30T01:32:50;96648.47;;;1.52;100.00
37068;BME280;22982;42.848;25.468;2022-11-30T01:37:52;96650.31;;;1.46;100.00
37068;BME280;22982;42.848;25.468;2022-11-30T01:42:55;96665.63;;;1.55;100.00
37068;BME280;22982;42.848;25.468;2022-11-30T01:47:57;96644.31;;;1.44;100.00
37068;BME280;22982;42.848;25.468;2022-11-30T01:53:01;96664.66;;;1.61;100.00
37068;BME280;22982;42.848;25.468;2022-11-30T01:58:11;96668.19;;;1.58;100.00
37068;BME280;22982;42.848;25.468;2022-11-30T02:03:16;96662.94;;;1.63;100.00
37068;BME280;22982;42.848;25.468;2022-11-30T02:08:23;96622.09;;;1.33;100.00
37068;BME280;22982;42.848;25.468;2022-11-30T02:13:54;96641.72;;;1.44;100.00
37068;BME280;22982;42.848;25.468;2022-11-30T02:30:13;96658.66;;;1.60;100.00
37068;BME280;22982;42.848;25.468;2022-11-30T02:35:19;96663.81;;;1.60;100.00
37068;BME280;22982;42.848;25.468;2022-11-30T02:40:23;96649.84;;;1.70;100.00
37068;BME280;22982;42.848;25.468;2022-11-30T02:45:32;96634.88;;;1.43;100.00
37068;BME280;22982;42.848;25.468;2022-11-30T02:50:41;96641.56;;;1.53;100.00
37068;BME280;22982;42.848;25.468;2022-11-30T02:55:46;96653.66;;;1.51;100.00
37068;BME280;22982;42.848;25.468;2022-11-30T03:00:48;96624.75;;;1.30;100.00
37068;BME280;22982;42.848;25.468;2022-11-30T03:05:51;96642.63;;;1.43;100.00
37068;BME280;22982;42.848;25.468;2022-11-30T03:10:53;96656.97;;;1.59;100.00
37068;BME280;22982;42.848;25.468;2022-11-30T03:15:55;96636.19;;;1.64;100.00
37068;BME280;22982;42.848;25.468;2022-11-30T03:20:57;96649.72;;;1.77;100.00
37068;BME280;22982;42.848;25.468;2022-11-30T03:26:00;96654.91;;;1.77;100.00
37068;BME280;22982;42.848;25.468;2022-11-30T03:31:03;96655.06;;;1.67;100.00
37068;BME280;22982;42.848;25.468;2022-11-30T03:36:08;96638.03;;;1.57;100.00
37068;BME280;22982;42.848;25.468;2022-11-30T03:41:13;96660.09;;;1.75;100.00
37068;BME280;22982;42.848;25.468;2022-11-30T03:46:17;96635.97;;;1.75;100.00
37068;BME280;22982;42.848;25.468;2022-11-30T03:51:19;96644.69;;;1.70;100.00
37068;BME280;22982;42.848;25.468;2022-11-30T03:56:21;96662.97;;;1.60;100.00
37068;BME280;22982;42.848;25.468;2022-11-30T04:01:24;96654.91;;;1.75;100.00
37068;BME280;22982;42.848;25.468;2022-11-30T04:06:26;96644.88;;;1.61;100.00
37068;BME280;22982;42.848;25.468;2022-11-30T04:11:29;96647.22;;;1.74;100.00
37068;BME280;22982;42.848;25.468;2022-11-30T04:16:31;96670.50;;;1.74;100.00
37068;BME280;22982;42.848;25.468;2022-11-30T04:21:33;96681.47;;;1.85;100.00
37068;BME280;22982;42.848;25.468;2022-11-30T04:26:36;96681.81;;;1.66;100.00
37068;BME280;22982;42.848;25.468;2022-11-30T04:31:38;96664.63;;;1.64;100.00
37068;BME280;22982;42.848;25.468;2022-11-30T04:36:40;96686.22;;;1.61;100.00
37068;BME280;22982;42.848;25.468;2022-11-30T04:41:42;96682.72;;;1.64;100.00
37068;BME280;22982;42.848;25.468;2022-11-30T04:46:45;96689.63;;;1.63;100.00
37068;BME280;22982;42.848;25.468;2022-11-30T04:51:47;96685.53;;;1.50;100.00
37068;BME280;22982;42.848;25.468;2022-11-30T04:56:49;96698.19;;;1.65;100.00
37068;BME280;22982;42.848;25.468;2022-11-30T05:01:51;96681.13;;;1.57;100.00
37068;BME280;22982;42.848;25.468;2022-11-30T05:06:55;96671.59;;;1.59;100.00
37068;BME280;22982;42.848;25.468;2022-11-30T05:11:57;96674.50;;;1.42;100.00
37068;BME280;22982;42.848;25.468;2022-11-30T05:16:59;96687.22;;;1.52;100.00
37068;BME280;22982;42.848;25.468;2022-11-30T05:22:02;96692.34;;;1.56;100.00
37068;BME280;22982;42.848;25.468;2022-11-30T05:27:04;96710.13;;;1.72;100.00
37068;BME280;22982;42.848;25.468;2022-11-30T05:32:15;96703.38;;;1.65;100.00
37068;BME280;22982;42.848;25.468;2022-11-30T05:37:18;96692.56;;;1.43;100.00
37068;BME280;22982;42.848;25.468;2022-11-30T05:42:20;96702.75;;;1.52;100.00
37068;BME280;22982;42.848;25.468;2022-11-30T05:47:23;96721.81;;;1.45;100.00
37068;BME280;22982;42.848;25.468;2022-11-30T05:52:25;96719.88;;;1.58;100.00
37068;BME280;22982;42.848;25.468;2022-11-30T05:57:27;96738.88;;;1.56;100.00
37068;BME280;22982;42.848;25.468;2022-11-30T06:02:29;96736.13;;;1.66;100.00
37068;BME280;22982;42.848;25.468;2022-11-30T06:07:32;96723.25;;;1.62;100.00
37068;BME280;22982;42.848;25.468;2022-11-30T06:12:34;96733.56;;;1.65;100.00
37068;BME280;22982;42.848;25.468;2022-11-30T06:17:36;96737.72;;;1.74;100.00
37068;BME280;22982;42.848;25.468;2022-11-30T06:22:38;96732.72;;;1.63;100.00
37068;BME280;22982;42.848;25.468;2022-11-30T06:27:41;96751.63;;;1.66;100.00
37068;BME280;22982;42.848;25.468;2022-11-30T06:32:45;96761.97;;;1.66;100.00
37068;BME280;22982;42.848;25.468;2022-11-30T06:37:48;96766.50;;;1.52;100.00
37068;BME280;22982;42.848;25.468;2022-11-30T06:42:50;96735.19;;;1.69;100.00
37068;BME280;22982;42.848;25.468;2022-11-30T06:47:56;96751.34;;;1.80;100.00
37068;BME280;22982;42.848;25.468;2022-11-30T06:52:58;96738.56;;;1.74;100.00
37068;BME280;22982;42.848;25.468;2022-11-30T06:58:08;96744.41;;;1.84;100.00
37068;BME280;22982;42.848;25.468;2022-11-30T07:03:10;96758.53;;;1.64;100.00
37068;BME280;22982;42.848;25.468;2022-11-30T07:08:14;96753.91;;;1.82;100.00
37068;BME280;22982;42.848;25.468;2022-11-30T07:13:17;96758.06;;;1.92;100.00
37068;BME280;22982;42.848;25.468;2022-11-30T07:18:20;96769.34;;;1.88;100.00
37068;BME280;22982;42.848;25.468;2022-11-30T07:23:26;96765.97;;;1.83;100.00
37068;BME280;22982;42.848;25.468;2022-11-30T07:28:56;96770.34;;;1.81;100.00
37068;BME280;22982;42.848;25.468;2022-11-30T07:34:04;96789.25;;;1.83;100.00
37068;BME280;22982;42.848;25.468;2022-11-30T07:39:07;96765.88;;;1.87;100.00
37068;BME280;22982;42.848;25.468;2022-11-30T07:44:10;96783.84;;;1.95;100.00
37068;BME280;22982;42.848;25.468;2022-11-30T07:49:13;96787.69;;;2.21;100.00
37068;BME280;22982;42.848;25.468;2022-11-30T07:54:16;96766.91;;;2.24;100.00
37068;BME280;22982;42.848;25.468;2022-11-30T07:59:18;96754.66;;;2.35;100.00
37068;BME280;22982;42.848;25.468;2022-11-30T08:04:20;96765.91;;;2.31;100.00
37068;BME280;22982;42.848;25.468;2022-11-30T08:09:25;96779.81;;;2.27;100.00
37068;BME280;22982;42.848;25.468;2022-11-30T08:14:27;96780.72;;;2.26;100.00
37068;BME280;22982;42.848;25.468;2022-11-30T08:19:29;96780.84;;;2.18;100.00
37068;BME280;22982;42.848;25.468;2022-11-30T08:24:31;96795.66;;;2.12;100.00
37068;BME280;22982;42.848;25.468;2022-11-30T08:29:34;96793.09;;;2.08;100.00
37068;BME280;22982;42.848;25.468;2022-11-30T08:34:36;96781.13;;;2.04;100.00
37068;BME280;22982;42.848;25.468;2022-11-30T08:39:38;96791.00;;;2.27;100.00
37068;BME280;22982;42.848;25.468;2022-11-30T08:44:40;96793.34;;;2.41;100.00
37068;BME280;22982;42.848;25.468;2022-11-30T08:49:42;96794.88;;;2.52;100.00
37068;BME280;22982;42.848;25.468;2022-11-30T08:54:46;96793.88;;;2.59;100.00
37068;BME280;22982;42.848;25.468;2022-11-30T08:59:49;96784.63;;;2.45;100.00
37068;BME280;22982;42.848;25.468;2022-11-30T09:04:51;96763.72;;;2.55;100.00
37068;BME280;22982;42.848;25.468;2022-11-30T09:09:54;96776.78;;;2.50;100.00
37068;BME280;22982;42.848;25.468;2022-11-30T09:14:59;96771.03;;;2.34;100.00
37068;BME280;22982;42.848;25.468;2022-11-30T09:20:01;96755.38;;;2.40;100.00
37068;BME280;22982;42.848;25.468;2022-11-30T09:25:04;96751.00;;;2.44;100.00
37068;BME280;22982;42.848;25.468;2022-11-30T09:30:07;96744.34;;;2.32;100.00
37068;BME280;22982;42.848;25.468;2022-11-30T09:35:10;96758.41;;;2.19;100.00
37068;BME280;22982;42.848;25.468;2022-11-30T09:40:14;96748.72;;;2.30;100.00
37068;BME280;22982;42.848;25.468;2022-11-30T09:50:22;96755.06;;;2.14;100.00
37068;BME280;22982;42.848;25.468;2022-11-30T09:55:36;96753.88;;;2.30;100.00
37068;BME280;22982;42.848;25.468;2022-11-30T10:00:42;96758.72;;;2.45;100.00
37068;BME280;22982;42.848;25.468;2022-11-30T10:05:47;96754.50;;;2.41;100.00
37068;BME280;22982;42.848;25.468;2022-11-30T10:22:04;96753.13;;;2.67;100.00
37068;BME280;22982;42.848;25.468;2022-11-30T10:27:16;96743.31;;;2.81;100.00
37068;BME280;22982;42.848;25.468;2022-11-30T10:32:21;96734.19;;;3.04;100.00
37068;BME280;22982;42.848;25.468;2022-11-30T10:37:36;96725.19;;;2.81;100.00
37068;BME280;22982;42.848;25.468;2022-11-30T10:48:39;96737.50;;;2.72;100.00
37068;BME280;22982;42.848;25.468;2022-11-30T10:53:44;96740.34;;;2.59;100.00
37068;BME280;22982;42.848;25.468;2022-11-30T10:58:52;96745.25;;;2.72;100.00
37068;BME280;22982;42.848;25.468;2022-11-30T11:14:31;96734.69;;;2.81;100.00
37068;BME280;22982;42.848;25.468;2022-11-30T11:19:40;96740.72;;;2.81;100.00
37068;BME280;22982;42.848;25.468;2022-11-30T11:24:44;96720.44;;;3.00;100.00
37068;BME280;22982;42.848;25.468;2022-11-30T11:30:01;96722.25;;;2.97;100.00
37068;BME280;22982;42.848;25.468;2022-11-30T11:35:45;96739.94;;;3.17;100.00
37068;BME280;22982;42.848;25.468;2022-11-30T11:46:09;96731.81;;;2.95;100.00
37068;BME280;22982;42.848;25.468;2022-11-30T11:51:12;96747.38;;;2.93;100.00
37068;BME280;22982;42.848;25.468;2022-11-30T11:56:31;96761.31;;;3.95;100.00
37068;BME280;22982;42.848;25.468;2022-11-30T12:01:49;96758.34;;;3.76;100.00
37068;BME280;22982;42.848;25.468;2022-11-30T12:06:55;96749.72;;;3.76;100.00
37068;BME280;22982;42.848;25.468;2022-11-30T12:12:00;96747.84;;;3.81;100.00
37068;BME280;22982;42.848;25.468;2022-11-30T12:28:40;96781.13;;;4.62;100.00
37068;BME280;22982;42.848;25.468;2022-11-30T12:34:36;96788.63;;;4.10;100.00
37068;BME280;22982;42.848;25.468;2022-11-30T12:39:51;96780.53;;;3.88;100.00
37068;BME280;22982;42.848;25.468;2022-11-30T13:05:56;96799.22;;;6.31;100.00
37068;BME280;22982;42.848;25.468;2022-11-30T13:11:10;96806.56;;;5.93;100.00
37068;BME280;22982;42.848;25.468;2022-11-30T13:16:14;96783.88;;;5.44;100.00
37068;BME280;22982;42.848;25.468;2022-11-30T13:21:33;96788.16;;;5.46;100.00
37068;BME280;22982;42.848;25.468;2022-11-30T13:31:52;96799.22;;;3.67;100.00
37068;BME280;22982;42.848;25.468;2022-11-30T13:37:07;96781.25;;;3.23;100.00
37068;BME280;22982;42.848;25.468;2022-11-30T13:47:32;96794.75;;;2.98;100.00
37068;BME280;22982;42.848;25.468;2022-11-30T14:08:37;96792.19;;;2.55;100.00
37068;BME280;22982;42.848;25.468;2022-11-30T14:13:40;96787.81;;;2.58;100.00
37068;BME280;22982;42.848;25.468;2022-11-30T14:18:45;96799.72;;;2.23;100.00
37068;BME280;22982;42.848;25.468;2022-11-30T14:23:55;96811.81;;;2.23;100.00
37068;BME280;22982;42.848;25.468;2022-11-30T14:39:41;96798.09;;;2.18;100.00
37068;BME280;22982;42.848;25.468;2022-11-30T14:44:44;96783.28;;;2.70;100.00
37068;BME280;22982;42.848;25.468;2022-11-30T14:49:50;96801.97;;;2.40;100.00
37068;BME280;22982;42.848;25.468;2022-11-30T15:00:29;96790.91;;;2.34;100.00
37068;BME280;22982;42.848;25.468;2022-11-30T15:05:37;96800.16;;;2.45;100.00
37068;BME280;22982;42.848;25.468;2022-11-30T15:10:41;96795.06;;;2.42;100.00
37068;BME280;22982;42.848;25.468;2022-11-30T15:15:52;96803.63;;;2.44;100.00
37068;BME280;22982;42.848;25.468;2022-11-30T15:20:57;96811.28;;;2.49;100.00
37068;BME280;22982;42.848;25.468;2022-11-30T15:26:05;96798.56;;;2.38;100.00
37068;BME280;22982;42.848;25.468;2022-11-30T15:31:43;96796.78;;;2.40;100.00
37068;BME280;22982;42.848;25.468;2022-11-30T15:36:46;96807.22;;;2.37;100.00
37068;BME280;22982;42.848;25.468;2022-11-30T15:41:59;96798.88;;;2.23;100.00
37068;BME280;22982;42.848;25.468;2022-11-30T15:47:05;96808.13;;;2.35;100.00
37068;BME280;22982;42.848;25.468;2022-11-30T15:57:14;96805.00;;;2.19;100.00
37068;BME280;22982;42.848;25.468;2022-11-30T16:02:29;96816.03;;;2.27;100.00
37068;BME280;22982;42.848;25.468;2022-11-30T16:07:35;96809.41;;;2.14;100.00
37068;BME280;22982;42.848;25.468;2022-11-30T16:12:38;96817.94;;;2.19;100.00
37068;BME280;22982;42.848;25.468;2022-11-30T16:17:40;96819.63;;;2.20;100.00
37068;BME280;22982;42.848;25.468;2022-11-30T16:22:44;96826.38;;;2.28;100.00
37068;BME280;22982;42.848;25.468;2022-11-30T16:27:48;96822.84;;;2.31;100.00
37068;BME280;22982;42.848;25.468;2022-11-30T16:32:50;96823.19;;;2.13;100.00
37068;BME280;22982;42.848;25.468;2022-11-30T16:37:53;96821.38;;;2.18;100.00
37068;BME280;22982;42.848;25.468;2022-11-30T16:42:56;96809.56;;;2.04;100.00
37068;BME280;22982;42.848;25.468;2022-11-30T16:47:58;96804.31;;;2.07;100.00
37068;BME280;22982;42.848;25.468;2022-11-30T16:53:01;96823.00;;;2.23;100.00
37068;BME280;22982;42.848;25.468;2022-11-30T16:58:04;96819.47;;;2.27;100.00
37068;BME280;22982;42.848;25.468;2022-11-30T17:03:16;96817.06;;;2.18;100.00
37068;BME280;22982;42.848;25.468;2022-11-30T17:08:19;96826.56;;;2.18;100.00
37068;BME280;22982;42.848;25.468;2022-11-30T17:13:21;96808.91;;;1.91;100.00
37068;BME280;22982;42.848;25.468;2022-11-30T17:18:24;96818.56;;;1.82;100.00
37068;BME280;22982;42.848;25.468;2022-11-30T17:23:26;96821.84;;;1.91;100.00
37068;BME280;22982;42.848;25.468;2022-11-30T17:28:28;96820.84;;;1.99;100.00
37068;BME280;22982;42.848;25.468;2022-11-30T17:33:32;96810.56;;;1.97;100.00
37068;BME280;22982;42.848;25.468;2022-11-30T17:38:36;96842.47;;;1.96;100.00
37068;BME280;22982;42.848;25.468;2022-11-30T17:43:39;96831.16;;;2.00;100.00
37068;BME280;22982;42.848;25.468;2022-11-30T17:48:42;96824.41;;;1.91;100.00
37068;BME280;22982;42.848;25.468;2022-11-30T17:53:44;96817.53;;;1.92;100.00
37068;BME280;22982;42.848;25.468;2022-11-30T17:58:47;96808.63;;;2.08;100.00
37068;BME280;22982;42.848;25.468;2022-11-30T18:03:50;96804.31;;;2.07;100.00
37068;BME280;22982;42.848;25.468;2022-11-30T18:08:53;96817.34;;;2.03;100.00
37068;BME280;22982;42.848;25.468;2022-11-30T18:13:59;96829.66;;;1.90;100.00
37068;BME280;22982;42.848;25.468;2022-11-30T18:19:04;96806.25;;;1.96;100.00
37068;BME280;22982;42.848;25.468;2022-11-30T18:24:13;96803.53;;;2.02;100.00
37068;BME280;22982;42.848;25.468;2022-11-30T18:29:15;96812.97;;;2.06;100.00
37068;BME280;22982;42.848;25.468;2022-11-30T18:34:18;96817.06;;;2.17;100.00
37068;BME280;22982;42.848;25.468;2022-11-30T18:39:20;96801.81;;;2.04;100.00
37068;BME280;22982;42.848;25.468;2022-11-30T18:44:22;96803.06;;;1.80;100.00
37068;BME280;22982;42.848;25.468;2022-11-30T18:49:25;96822.16;;;1.71;100.00
37068;BME280;22982;42.848;25.468;2022-11-30T18:54:28;96818.34;;;1.94;100.00
37068;BME280;22982;42.848;25.468;2022-11-30T18:59:32;96838.19;;;1.94;100.00
37068;BME280;22982;42.848;25.468;2022-11-30T19:04:34;96834.84;;;1.88;100.00
37068;BME280;22982;42.848;25.468;2022-11-30T19:09:37;96836.31;;;2.02;100.00
37068;BME280;22982;42.848;25.468;2022-11-30T19:14:39;96835.19;;;2.17;100.00
37068;BME280;22982;42.848;25.468;2022-11-30T19:19:43;96828.31;;;2.16;100.00
37068;BME280;22982;42.848;25.468;2022-11-30T19:24:45;96855.97;;;2.14;100.00
37068;BME280;22982;42.848;25.468;2022-11-30T19:29:48;96838.84;;;2.06;100.00
37068;BME280;22982;42.848;25.468;2022-11-30T19:34:50;96836.69;;;1.79;100.00
37068;BME280;22982;42.848;25.468;2022-11-30T19:39:53;96833.84;;;1.97;100.00
37068;BME280;22982;42.848;25.468;2022-11-30T19:44:55;96844.91;;;2.04;100.00
37068;BME280;22982;42.848;25.468;2022-11-30T19:49:57;96841.63;;;1.96;100.00
37068;BME280;22982;42.848;25.468;2022-11-30T19:55:01;96837.44;;;1.87;100.00
37068;BME280;22982;42.848;25.468;2022-11-30T20:00:04;96829.06;;;1.72;100.00
37068;BME280;22982;42.848;25.468;2022-11-30T20:05:13;96830.66;;;1.80;100.00
37068;BME280;22982;42.848;25.468;2022-11-30T20:10:16;96835.06;;;1.75;100.00
37068;BME280;22982;42.848;25.468;2022-11-30T20:15:18;96843.38;;;1.94;100.00
37068;BME280;22982;42.848;25.468;2022-11-30T20:20:20;96844.03;;;2.06;100.00
37068;BME280;22982;42.848;25.468;2022-11-30T20:25:23;96841.69;;;1.91;100.00
37068;BME280;22982;42.848;25.468;2022-11-30T20:30:25;96835.56;;;1.95;100.00
37068;BME280;22982;42.848;25.468;2022-11-30T20:35:28;96860.94;;;1.71;100.00
37068;BME280;22982;42.848;25.468;2022-11-30T20:40:30;96837.00;;;1.62;100.00
37068;BME280;22982;42.848;25.468;2022-11-30T20:45:32;96823.56;;;1.91;100.00
37068;BME280;22982;42.848;25.468;2022-11-30T20:50:34;96830.44;;;1.94;100.00
37068;BME280;22982;42.848;25.468;2022-11-30T20:55:37;96837.41;;;1.90;100.00
37068;BME280;22982;42.848;25.468;2022-11-30T21:00:39;96826.16;;;1.91;100.00
37068;BME280;22982;42.848;25.468;2022-11-30T21:05:41;96823.50;;;1.97;100.00
37068;BME280;22982;42.848;25.468;2022-11-30T21:10:43;96831.28;;;1.96;100.00
37068;BME280;22982;42.848;25.468;2022-11-30T21:15:48;96841.88;;;1.79;100.00
37068;BME280;22982;42.848;25.468;2022-11-30T21:20:51;96855.75;;;1.75;100.00
37068;BME280;22982;42.848;25.468;2022-11-30T21:25:53;96851.22;;;1.87;100.00
37068;BME280;22982;42.848;25.468;2022-11-30T21:30:56;96852.59;;;2.08;100.00
37068;BME280;22982;42.848;25.468;2022-11-30T21:35:58;96846.59;;;2.08;100.00
37068;BME280;22982;42.848;25.468;2022-11-30T21:41:01;96845.66;;;2.10;100.00
37068;BME280;22982;42.848;25.468;2022-11-30T21:46:10;96835.31;;;2.10;100.00
37068;BME280;22982;42.848;25.468;2022-11-30T21:51:18;96841.16;;;2.20;100.00
37068;BME280;22982;42.848;25.468;2022-11-30T21:56:23;96830.91;;;2.16;100.00
37068;BME280;22982;42.848;25.468;2022-11-30T22:01:32;96840.38;;;2.17;100.00
37068;BME280;22982;42.848;25.468;2022-11-30T22:06:36;96845.91;;;1.95;100.00
37068;BME280;22982;42.848;25.468;2022-11-30T22:11:41;96841.75;;;1.88;100.00
37068;BME280;22982;42.848;25.468;2022-11-30T22:16:43;96836.69;;;1.79;100.00
37068;BME280;22982;42.848;25.468;2022-11-30T22:21:46;96832.13;;;1.96;100.00
37068;BME280;22982;42.848;25.468;2022-11-30T22:26:51;96821.16;;;3.14;100.00
37068;BME280;22982;42.848;25.468;2022-11-30T22:31:53;96828.19;;;2.67;100.00
37068;BME280;22982;42.848;25.468;2022-11-30T22:36:56;96835.19;;;2.17;100.00
37068;BME280;22982;42.848;25.468;2022-11-30T22:41:58;96816.97;;;2.23;100.00
37068;BME280;22982;42.848;25.468;2022-11-30T22:47:00;96810.91;;;2.24;100.00
37068;BME280;22982;42.848;25.468;2022-11-30T22:52:02;96840.53;;;2.07;100.00
37068;BME280;22982;42.848;25.468;2022-11-30T22:57:04;96825.91;;;2.06;100.00
37068;BME280;22982;42.848;25.468;2022-11-30T23:02:07;96827.22;;;2.29;100.00
37068;BME280;22982;42.848;25.468;2022-11-30T23:07:09;96819.66;;;2.17;100.00
37068;BME280;22982;42.848;25.468;2022-11-30T23:12:11;96815.44;;;2.13;100.00
37068;BME280;22982;42.848;25.468;2022-11-30T23:17:34;96823.16;;;2.16;100.00
37068;BME280;22982;42.848;25.468;2022-11-30T23:22:36;96809.28;;;2.20;100.00
37068;BME280;22982;42.848;25.468;2022-11-30T23:27:38;96806.84;;;2.12;100.00
37068;BME280;22982;42.848;25.468;2022-11-30T23:32:40;96806.53;;;2.27;100.00
37068;BME280;22982;42.848;25.468;2022-11-30T23:37:43;96805.03;;;2.17;100.00
37068;BME280;22982;42.848;25.468;2022-11-30T23:42:45;96810.25;;;2.14;100.00
37068;BME280;22982;42.848;25.468;2022-11-30T23:47:48;96800.16;;;1.99;100.00
37068;BME280;22982;42.848;25.468;2022-11-30T23:52:50;96802.41;;;2.19;100.00
37068;BME280;22982;42.848;25.468;2022-11-30T23:57:52;96772.06;;;1.79;100.00
